sensor_id;sensor_type;location;lat;lon;timestamp;P1;durP1;ratioP1;P2;durP2;ratioP2
55760;SDS011;41679;51.440;-2.012;2022-07-15T00:00:23;8.52;;;1.10;;
55760;SDS011;41679;51.440;-2.012;2022-07-15T00:02:48;9.13;;;0.70;;
55760;SDS011;41679;51.440;-2.012;2022-07-15T00:05:14;6.85;;;0.70;;
55760;SDS011;41679;51.440;-2.012;2022-07-15T00:07:39;9.15;;;2.10;;
55760;SDS011;41679;51.440;-2.012;2022-07-15T00:10:05;10.20;;;1.42;;
55760;SDS011;41679;51.440;-2.012;2022-07-15T00:12:40;6.10;;;0.77;;
55760;SDS011;41679;51.440;-2.012;2022-07-15T00:15:09;5.55;;;0.57;;
55760;SDS011;41679;51.440;-2.012;2022-07-15T00:17:36;7.57;;;0.80;;
55760;SDS011;41679;51.440;-2.012;2022-07-15T00:20:02;4.28;;;0.70;;
55760;SDS011;41679;51.440;-2.012;2022-07-15T00:22:28;9.48;;;1.00;;
55760;SDS011;41679;51.440;-2.012;2022-07-15T00:24:53;9.05;;;0.93;;
55760;SDS011;41679;51.440;-2.012;2022-07-15T00:27:19;6.85;;;0.70;;
55760;SDS011;41679;51.440;-2.012;2022-07-15T00:29:44;4.57;;;0.60;;
55760;SDS011;41679;51.440;-2.012;2022-07-15T00:32:10;10.05;;;0.80;;
55760;SDS011;41679;51.440;-2.012;2022-07-15T00:34:35;6.68;;;0.60;;
55760;SDS011;41679;51.440;-2.012;2022-07-15T00:37:01;7.95;;;0.65;;
55760;SDS011;41679;51.440;-2.012;2022-07-15T00:39:27;4.25;;;0.60;;
55760;SDS011;41679;51.440;-2.012;2022-07-15T00:41:53;7.47;;;0.77;;
55760;SDS011;41679;51.440;-2.012;2022-07-15T00:44:18;6.35;;;0.93;;
55760;SDS011;41679;51.440;-2.012;2022-07-15T00:46:45;8.50;;;0.73;;
55760;SDS011;41679;51.440;-2.012;2022-07-15T00:49:11;6.53;;;0.60;;
55760;SDS011;41679;51.440;-2.012;2022-07-15T00:51:38;7.82;;;0.60;;
55760;SDS011;41679;51.440;-2.012;2022-07-15T00:54:06;3.17;;;0.55;;
55760;SDS011;41679;51.440;-2.012;2022-07-15T00:56:37;7.85;;;0.60;;
55760;SDS011;41679;51.440;-2.012;2022-07-15T00:59:05;6.78;;;0.60;;
55760;SDS011;41679;51.440;-2.012;2022-07-15T01:01:32;6.65;;;0.73;;
55760;SDS011;41679;51.440;-2.012;2022-07-15T01:04:00;7.88;;;0.60;;
55760;SDS011;41679;51.440;-2.012;2022-07-15T01:06:27;4.65;;;0.70;;
55760;SDS011;41679;51.440;-2.012;2022-07-15T01:08:53;7.35;;;0.50;;
55760;SDS011;41679;51.440;-2.012;2022-07-15T01:11:19;4.50;;;0.50;;
55760;SDS011;41679;51.440;-2.012;2022-07-15T01:13:45;7.20;;;0.70;;
55760;SDS011;41679;51.440;-2.012;2022-07-15T01:16:11;9.10;;;1.42;;
55760;SDS011;41679;51.440;-2.012;2022-07-15T01:18:36;7.13;;;0.70;;
55760;SDS011;41679;51.440;-2.012;2022-07-15T01:21:02;6.90;;;0.77;;
55760;SDS011;41679;51.440;-2.012;2022-07-15T01:23:27;8.23;;;0.80;;
55760;SDS011;41679;51.440;-2.012;2022-07-15T01:25:53;8.30;;;0.65;;
55760;SDS011;41679;51.440;-2.012;2022-07-15T01:28:19;5.97;;;0.80;;
55760;SDS011;41679;51.440;-2.012;2022-07-15T01:30:45;10.38;;;0.82;;
55760;SDS011;41679;51.440;-2.012;2022-07-15T01:33:10;10.75;;;1.25;;
55760;SDS011;41679;51.440;-2.012;2022-07-15T01:35:36;5.70;;;0.60;;
55760;SDS011;41679;51.440;-2.012;2022-07-15T01:38:02;6.57;;;0.80;;
55760;SDS011;41679;51.440;-2.012;2022-07-15T01:40:28;6.22;;;0.98;;
55760;SDS011;41679;51.440;-2.012;2022-07-15T01:42:53;7.78;;;0.73;;
55760;SDS011;41679;51.440;-2.012;2022-07-15T01:45:19;3.65;;;0.60;;
55760;SDS011;41679;51.440;-2.012;2022-07-15T01:47:45;7.10;;;0.82;;
55760;SDS011;41679;51.440;-2.012;2022-07-15T01:50:12;7.43;;;0.70;;
55760;SDS011;41679;51.440;-2.012;2022-07-15T01:52:38;9.13;;;1.00;;
55760;SDS011;41679;51.440;-2.012;2022-07-15T01:55:04;5.45;;;0.80;;
55760;SDS011;41679;51.440;-2.012;2022-07-15T01:57:31;8.18;;;1.00;;
55760;SDS011;41679;51.440;-2.012;2022-07-15T01:59:56;8.90;;;0.90;;
55760;SDS011;41679;51.440;-2.012;2022-07-15T02:02:22;7.60;;;0.65;;
55760;SDS011;41679;51.440;-2.012;2022-07-15T02:04:47;6.97;;;0.80;;
55760;SDS011;41679;51.440;-2.012;2022-07-15T02:07:14;12.93;;;0.98;;
55760;SDS011;41679;51.440;-2.012;2022-07-15T02:09:39;7.10;;;0.80;;
55760;SDS011;41679;51.440;-2.012;2022-07-15T02:12:05;9.30;;;0.80;;
55760;SDS011;41679;51.440;-2.012;2022-07-15T02:14:31;6.40;;;0.93;;
55760;SDS011;41679;51.440;-2.012;2022-07-15T02:16:57;6.25;;;0.73;;
55760;SDS011;41679;51.440;-2.012;2022-07-15T02:19:22;8.10;;;0.93;;
55760;SDS011;41679;51.440;-2.012;2022-07-15T02:21:48;7.13;;;0.80;;
55760;SDS011;41679;51.440;-2.012;2022-07-15T02:24:14;4.47;;;0.57;;
55760;SDS011;41679;51.440;-2.012;2022-07-15T02:26:39;10.98;;;1.00;;
55760;SDS011;41679;51.440;-2.012;2022-07-15T02:29:05;7.70;;;0.80;;
55760;SDS011;41679;51.440;-2.012;2022-07-15T02:31:31;6.75;;;0.80;;
55760;SDS011;41679;51.440;-2.012;2022-07-15T02:33:56;7.93;;;0.80;;
55760;SDS011;41679;51.440;-2.012;2022-07-15T02:36:22;8.18;;;0.80;;
55760;SDS011;41679;51.440;-2.012;2022-07-15T02:38:48;7.95;;;1.23;;
55760;SDS011;41679;51.440;-2.012;2022-07-15T02:41:14;6.15;;;0.82;;
55760;SDS011;41679;51.440;-2.012;2022-07-15T02:43:39;6.35;;;0.88;;
55760;SDS011;41679;51.440;-2.012;2022-07-15T02:46:07;5.28;;;0.65;;
55760;SDS011;41679;51.440;-2.012;2022-07-15T02:48:34;7.25;;;0.70;;
55760;SDS011;41679;51.440;-2.012;2022-07-15T02:50:59;6.18;;;0.63;;
55760;SDS011;41679;51.440;-2.012;2022-07-15T02:53:25;5.05;;;0.80;;
55760;SDS011;41679;51.440;-2.012;2022-07-15T02:55:54;5.10;;;0.80;;
55760;SDS011;41679;51.440;-2.012;2022-07-15T02:58:22;6.28;;;0.80;;
55760;SDS011;41679;51.440;-2.012;2022-07-15T03:00:47;9.15;;;1.00;;
55760;SDS011;41679;51.440;-2.012;2022-07-15T03:03:13;6.95;;;0.80;;
55760;SDS011;41679;51.440;-2.012;2022-07-15T03:05:38;7.10;;;0.90;;
55760;SDS011;41679;51.440;-2.012;2022-07-15T03:08:05;8.90;;;0.80;;
55760;SDS011;41679;51.440;-2.012;2022-07-15T03:10:30;11.32;;;1.42;;
55760;SDS011;41679;51.440;-2.012;2022-07-15T03:12:55;5.13;;;0.70;;
55760;SDS011;41679;51.440;-2.012;2022-07-15T03:15:21;6.75;;;1.00;;
55760;SDS011;41679;51.440;-2.012;2022-07-15T03:17:46;5.43;;;0.85;;
55760;SDS011;41679;51.440;-2.012;2022-07-15T03:20:12;7.35;;;0.90;;
55760;SDS011;41679;51.440;-2.012;2022-07-15T03:22:37;8.07;;;1.00;;
55760;SDS011;41679;51.440;-2.012;2022-07-15T03:25:03;8.10;;;1.35;;
55760;SDS011;41679;51.440;-2.012;2022-07-15T03:27:29;7.22;;;1.48;;
55760;SDS011;41679;51.440;-2.012;2022-07-15T03:29:55;5.00;;;0.70;;
55760;SDS011;41679;51.440;-2.012;2022-07-15T03:32:20;5.45;;;0.77;;
55760;SDS011;41679;51.440;-2.012;2022-07-15T03:34:46;6.07;;;0.73;;
55760;SDS011;41679;51.440;-2.012;2022-07-15T03:37:14;11.00;;;0.98;;
55760;SDS011;41679;51.440;-2.012;2022-07-15T03:39:39;8.05;;;0.70;;
55760;SDS011;41679;51.440;-2.012;2022-07-15T03:42:05;5.93;;;0.68;;
55760;SDS011;41679;51.440;-2.012;2022-07-15T03:44:31;8.80;;;1.15;;
55760;SDS011;41679;51.440;-2.012;2022-07-15T03:46:56;5.50;;;0.93;;
55760;SDS011;41679;51.440;-2.012;2022-07-15T03:49:22;4.47;;;0.70;;
55760;SDS011;41679;51.440;-2.012;2022-07-15T03:51:47;7.65;;;0.90;;
55760;SDS011;41679;51.440;-2.012;2022-07-15T03:54:13;7.82;;;0.82;;
55760;SDS011;41679;51.440;-2.012;2022-07-15T03:56:39;8.18;;;1.00;;
55760;SDS011;41679;51.440;-2.012;2022-07-15T03:59:04;7.13;;;0.98;;
55760;SDS011;41679;51.440;-2.012;2022-07-15T04:01:31;5.03;;;0.80;;
55760;SDS011;41679;51.440;-2.012;2022-07-15T04:03:57;7.30;;;0.90;;
55760;SDS011;41679;51.440;-2.012;2022-07-15T04:06:23;8.30;;;1.00;;
55760;SDS011;41679;51.440;-2.012;2022-07-15T04:08:49;7.45;;;1.05;;
55760;SDS011;41679;51.440;-2.012;2022-07-15T04:11:15;8.25;;;0.85;;
55760;SDS011;41679;51.440;-2.012;2022-07-15T04:13:41;8.02;;;0.85;;
55760;SDS011;41679;51.440;-2.012;2022-07-15T04:16:07;6.57;;;1.00;;
55760;SDS011;41679;51.440;-2.012;2022-07-15T04:18:34;5.35;;;0.80;;
55760;SDS011;41679;51.440;-2.012;2022-07-15T04:20:59;8.65;;;0.98;;
55760;SDS011;41679;51.440;-2.012;2022-07-15T04:23:25;10.43;;;0.95;;
55760;SDS011;41679;51.440;-2.012;2022-07-15T04:25:51;7.43;;;0.80;;
55760;SDS011;41679;51.440;-2.012;2022-07-15T04:28:17;5.32;;;0.82;;
55760;SDS011;41679;51.440;-2.012;2022-07-15T04:30:44;6.32;;;0.80;;
55760;SDS011;41679;51.440;-2.012;2022-07-15T04:33:09;5.85;;;0.77;;
55760;SDS011;41679;51.440;-2.012;2022-07-15T04:35:35;9.75;;;1.33;;
55760;SDS011;41679;51.440;-2.012;2022-07-15T04:38:00;4.93;;;0.70;;
55760;SDS011;41679;51.440;-2.012;2022-07-15T04:40:25;5.97;;;0.80;;
55760;SDS011;41679;51.440;-2.012;2022-07-15T04:42:51;12.90;;;2.38;;
55760;SDS011;41679;51.440;-2.012;2022-07-15T04:45:17;8.18;;;1.00;;
55760;SDS011;41679;51.440;-2.012;2022-07-15T04:47:42;9.68;;;1.02;;
55760;SDS011;41679;51.440;-2.012;2022-07-15T04:50:08;8.20;;;0.90;;
55760;SDS011;41679;51.440;-2.012;2022-07-15T04:52:52;10.25;;;1.30;;
55760;SDS011;41679;51.440;-2.012;2022-07-15T04:55:17;6.95;;;1.00;;
55760;SDS011;41679;51.440;-2.012;2022-07-15T04:57:43;5.28;;;0.88;;
55760;SDS011;41679;51.440;-2.012;2022-07-15T05:00:09;8.68;;;1.00;;
55760;SDS011;41679;51.440;-2.012;2022-07-15T05:02:35;7.72;;;0.98;;
55760;SDS011;41679;51.440;-2.012;2022-07-15T05:05:00;6.63;;;0.90;;
55760;SDS011;41679;51.440;-2.012;2022-07-15T05:07:26;16.27;;;1.10;;
55760;SDS011;41679;51.440;-2.012;2022-07-15T05:09:52;8.32;;;0.95;;
55760;SDS011;41679;51.440;-2.012;2022-07-15T05:12:17;4.43;;;0.80;;
55760;SDS011;41679;51.440;-2.012;2022-07-15T05:14:43;9.13;;;0.70;;
55760;SDS011;41679;51.440;-2.012;2022-07-15T05:17:09;5.93;;;0.82;;
55760;SDS011;41679;51.440;-2.012;2022-07-15T05:19:34;6.97;;;0.77;;
55760;SDS011;41679;51.440;-2.012;2022-07-15T05:22:00;7.57;;;0.77;;
55760;SDS011;41679;51.440;-2.012;2022-07-15T05:24:25;6.68;;;0.60;;
55760;SDS011;41679;51.440;-2.012;2022-07-15T05:26:51;8.48;;;0.85;;
55760;SDS011;41679;51.440;-2.012;2022-07-15T05:29:16;9.05;;;1.02;;
55760;SDS011;41679;51.440;-2.012;2022-07-15T05:31:42;5.53;;;0.80;;
55760;SDS011;41679;51.440;-2.012;2022-07-15T05:34:08;8.15;;;0.70;;
55760;SDS011;41679;51.440;-2.012;2022-07-15T05:36:34;8.93;;;0.80;;
55760;SDS011;41679;51.440;-2.012;2022-07-15T05:39:00;7.53;;;0.52;;
55760;SDS011;41679;51.440;-2.012;2022-07-15T05:41:25;6.13;;;0.52;;
55760;SDS011;41679;51.440;-2.012;2022-07-15T05:43:51;5.90;;;0.70;;
55760;SDS011;41679;51.440;-2.012;2022-07-15T05:46:18;6.55;;;0.70;;
55760;SDS011;41679;51.440;-2.012;2022-07-15T05:48:43;12.07;;;0.93;;
55760;SDS011;41679;51.440;-2.012;2022-07-15T05:51:09;7.72;;;0.73;;
55760;SDS011;41679;51.440;-2.012;2022-07-15T05:53:34;8.60;;;0.60;;
55760;SDS011;41679;51.440;-2.012;2022-07-15T05:56:00;6.47;;;0.85;;
55760;SDS011;41679;51.440;-2.012;2022-07-15T05:58:26;9.10;;;0.75;;
55760;SDS011;41679;51.440;-2.012;2022-07-15T06:00:52;9.50;;;1.00;;
55760;SDS011;41679;51.440;-2.012;2022-07-15T06:03:17;9.77;;;0.70;;
55760;SDS011;41679;51.440;-2.012;2022-07-15T06:05:43;6.35;;;0.55;;
55760;SDS011;41679;51.440;-2.012;2022-07-15T06:08:09;8.25;;;0.60;;
55760;SDS011;41679;51.440;-2.012;2022-07-15T06:10:36;7.63;;;0.60;;
55760;SDS011;41679;51.440;-2.012;2022-07-15T06:13:02;5.63;;;0.50;;
55760;SDS011;41679;51.440;-2.012;2022-07-15T06:15:28;9.13;;;0.70;;
55760;SDS011;41679;51.440;-2.012;2022-07-15T06:17:54;9.98;;;0.95;;
55760;SDS011;41679;51.440;-2.012;2022-07-15T06:20:21;7.95;;;0.50;;
55760;SDS011;41679;51.440;-2.012;2022-07-15T06:22:47;11.50;;;1.17;;
55760;SDS011;41679;51.440;-2.012;2022-07-15T06:25:12;17.77;;;1.52;;
55760;SDS011;41679;51.440;-2.012;2022-07-15T06:27:38;9.82;;;0.70;;
55760;SDS011;41679;51.440;-2.012;2022-07-15T06:30:04;9.70;;;1.10;;
55760;SDS011;41679;51.440;-2.012;2022-07-15T06:32:30;9.20;;;0.75;;
55760;SDS011;41679;51.440;-2.012;2022-07-15T06:34:56;10.13;;;0.90;;
55760;SDS011;41679;51.440;-2.012;2022-07-15T06:37:21;10.13;;;1.00;;
55760;SDS011;41679;51.440;-2.012;2022-07-15T06:39:47;10.63;;;1.20;;
55760;SDS011;41679;51.440;-2.012;2022-07-15T06:42:13;9.80;;;1.20;;
55760;SDS011;41679;51.440;-2.012;2022-07-15T06:44:39;11.23;;;1.02;;
55760;SDS011;41679;51.440;-2.012;2022-07-15T06:47:04;8.20;;;0.88;;
55760;SDS011;41679;51.440;-2.012;2022-07-15T06:49:32;14.07;;;1.23;;
55760;SDS011;41679;51.440;-2.012;2022-07-15T06:51:59;13.00;;;1.50;;
55760;SDS011;41679;51.440;-2.012;2022-07-15T06:54:25;10.90;;;1.00;;
55760;SDS011;41679;51.440;-2.012;2022-07-15T06:56:51;11.23;;;1.15;;
55760;SDS011;41679;51.440;-2.012;2022-07-15T06:59:16;11.10;;;1.38;;
55760;SDS011;41679;51.440;-2.012;2022-07-15T07:01:42;7.60;;;1.05;;
55760;SDS011;41679;51.440;-2.012;2022-07-15T07:04:07;6.47;;;0.80;;
55760;SDS011;41679;51.440;-2.012;2022-07-15T07:06:33;13.02;;;1.15;;
55760;SDS011;41679;51.440;-2.012;2022-07-15T07:08:58;10.88;;;0.90;;
55760;SDS011;41679;51.440;-2.012;2022-07-15T07:11:24;8.93;;;0.98;;
55760;SDS011;41679;51.440;-2.012;2022-07-15T07:13:50;7.95;;;0.95;;
55760;SDS011;41679;51.440;-2.012;2022-07-15T07:16:16;9.40;;;1.00;;
55760;SDS011;41679;51.440;-2.012;2022-07-15T07:18:42;9.50;;;1.02;;
55760;SDS011;41679;51.440;-2.012;2022-07-15T07:21:10;9.27;;;0.63;;
55760;SDS011;41679;51.440;-2.012;2022-07-15T07:23:36;10.65;;;1.00;;
55760;SDS011;41679;51.440;-2.012;2022-07-15T07:26:04;10.45;;;1.17;;
55760;SDS011;41679;51.440;-2.012;2022-07-15T07:28:31;11.13;;;0.85;;
55760;SDS011;41679;51.440;-2.012;2022-07-15T07:30:57;11.65;;;1.25;;
55760;SDS011;41679;51.440;-2.012;2022-07-15T07:33:22;9.15;;;0.88;;
55760;SDS011;41679;51.440;-2.012;2022-07-15T07:35:48;17.75;;;0.95;;
55760;SDS011;41679;51.440;-2.012;2022-07-15T07:38:14;6.85;;;0.82;;
55760;SDS011;41679;51.440;-2.012;2022-07-15T07:40:39;8.20;;;0.90;;
55760;SDS011;41679;51.440;-2.012;2022-07-15T07:43:05;7.65;;;0.82;;
55760;SDS011;41679;51.440;-2.012;2022-07-15T07:45:31;8.00;;;1.05;;
55760;SDS011;41679;51.440;-2.012;2022-07-15T07:47:56;10.88;;;1.17;;
55760;SDS011;41679;51.440;-2.012;2022-07-15T07:50:22;15.82;;;1.05;;
55760;SDS011;41679;51.440;-2.012;2022-07-15T07:52:47;7.50;;;0.60;;
55760;SDS011;41679;51.440;-2.012;2022-07-15T07:55:13;7.40;;;0.50;;
55760;SDS011;41679;51.440;-2.012;2022-07-15T07:57:46;8.57;;;0.40;;
55760;SDS011;41679;51.440;-2.012;2022-07-15T08:00:13;5.60;;;0.40;;
55760;SDS011;41679;51.440;-2.012;2022-07-15T08:02:39;4.93;;;0.50;;
55760;SDS011;41679;51.440;-2.012;2022-07-15T08:05:04;9.45;;;0.90;;
55760;SDS011;41679;51.440;-2.012;2022-07-15T08:07:30;6.22;;;0.60;;
55760;SDS011;41679;51.440;-2.012;2022-07-15T08:09:56;7.25;;;0.60;;
55760;SDS011;41679;51.440;-2.012;2022-07-15T08:12:21;5.57;;;0.60;;
55760;SDS011;41679;51.440;-2.012;2022-07-15T08:14:47;6.30;;;0.40;;
55760;SDS011;41679;51.440;-2.012;2022-07-15T08:17:15;6.30;;;0.65;;
55760;SDS011;41679;51.440;-2.012;2022-07-15T08:19:41;6.93;;;0.30;;
55760;SDS011;41679;51.440;-2.012;2022-07-15T08:22:06;11.23;;;0.88;;
55760;SDS011;41679;51.440;-2.012;2022-07-15T08:24:32;6.82;;;0.40;;
55760;SDS011;41679;51.440;-2.012;2022-07-15T08:26:57;11.65;;;0.80;;
55760;SDS011;41679;51.440;-2.012;2022-07-15T08:29:22;7.18;;;0.80;;
55760;SDS011;41679;51.440;-2.012;2022-07-15T08:31:48;5.32;;;0.40;;
55760;SDS011;41679;51.440;-2.012;2022-07-15T08:34:13;5.35;;;0.30;;
55760;SDS011;41679;51.440;-2.012;2022-07-15T08:36:39;5.35;;;0.40;;
55760;SDS011;41679;51.440;-2.012;2022-07-15T08:39:05;6.20;;;0.43;;
55760;SDS011;41679;51.440;-2.012;2022-07-15T08:41:34;6.10;;;0.50;;
55760;SDS011;41679;51.440;-2.012;2022-07-15T08:44:02;11.50;;;0.50;;
55760;SDS011;41679;51.440;-2.012;2022-07-15T08:46:27;9.38;;;0.65;;
55760;SDS011;41679;51.440;-2.012;2022-07-15T08:48:54;5.68;;;0.65;;
55760;SDS011;41679;51.440;-2.012;2022-07-15T08:51:26;3.38;;;0.25;;
55760;SDS011;41679;51.440;-2.012;2022-07-15T08:53:53;6.53;;;0.50;;
55760;SDS011;41679;51.440;-2.012;2022-07-15T08:56:21;7.80;;;0.65;;
55760;SDS011;41679;51.440;-2.012;2022-07-15T08:58:47;6.97;;;0.68;;
55760;SDS011;41679;51.440;-2.012;2022-07-15T09:01:13;7.15;;;0.60;;
55760;SDS011;41679;51.440;-2.012;2022-07-15T09:03:38;3.53;;;0.35;;
55760;SDS011;41679;51.440;-2.012;2022-07-15T09:06:04;7.55;;;0.57;;
55760;SDS011;41679;51.440;-2.012;2022-07-15T09:08:30;4.25;;;0.30;;
55760;SDS011;41679;51.440;-2.012;2022-07-15T09:10:57;9.02;;;0.60;;
55760;SDS011;41679;51.440;-2.012;2022-07-15T09:13:27;8.45;;;0.40;;
55760;SDS011;41679;51.440;-2.012;2022-07-15T09:16:10;5.18;;;0.50;;
55760;SDS011;41679;51.440;-2.012;2022-07-15T09:18:42;6.15;;;0.60;;
55760;SDS011;41679;51.440;-2.012;2022-07-15T09:21:14;7.35;;;0.45;;
55760;SDS011;41679;51.440;-2.012;2022-07-15T09:23:40;3.38;;;0.40;;
55760;SDS011;41679;51.440;-2.012;2022-07-15T09:28:52;4.18;;;0.40;;
55760;SDS011;41679;51.440;-2.012;2022-07-15T09:31:31;8.13;;;0.45;;
55760;SDS011;41679;51.440;-2.012;2022-07-15T09:34:17;5.82;;;0.47;;
55760;SDS011;41679;51.440;-2.012;2022-07-15T09:36:45;2.88;;;0.30;;
55760;SDS011;41679;51.440;-2.012;2022-07-15T09:39:18;5.45;;;0.85;;
55760;SDS011;41679;51.440;-2.012;2022-07-15T09:41:46;6.78;;;0.30;;
55760;SDS011;41679;51.440;-2.012;2022-07-15T09:44:14;4.00;;;0.40;;
55760;SDS011;41679;51.440;-2.012;2022-07-15T09:46:44;6.72;;;0.60;;
55760;SDS011;41679;51.440;-2.012;2022-07-15T09:54:23;11.75;;;1.08;;
55760;SDS011;41679;51.440;-2.012;2022-07-15T09:56:51;9.02;;;0.70;;
55760;SDS011;41679;51.440;-2.012;2022-07-15T09:59:18;5.55;;;0.80;;
55760;SDS011;41679;51.440;-2.012;2022-07-15T10:01:45;4.63;;;0.70;;
55760;SDS011;41679;51.440;-2.012;2022-07-15T10:04:14;9.13;;;0.70;;
55760;SDS011;41679;51.440;-2.012;2022-07-15T10:06:41;4.07;;;0.50;;
55760;SDS011;41679;51.440;-2.012;2022-07-15T10:09:07;7.72;;;0.73;;
55760;SDS011;41679;51.440;-2.012;2022-07-15T10:11:37;7.55;;;0.93;;
55760;SDS011;41679;51.440;-2.012;2022-07-15T10:17:04;9.40;;;0.75;;
55760;SDS011;41679;51.440;-2.012;2022-07-15T10:19:40;7.03;;;0.90;;
55760;SDS011;41679;51.440;-2.012;2022-07-15T10:28:03;10.43;;;0.73;;
55760;SDS011;41679;51.440;-2.012;2022-07-15T10:30:32;8.20;;;0.50;;
55760;SDS011;41679;51.440;-2.012;2022-07-15T10:33:05;4.82;;;0.50;;
55760;SDS011;41679;51.440;-2.012;2022-07-15T10:35:33;6.68;;;0.88;;
55760;SDS011;41679;51.440;-2.012;2022-07-15T10:38:23;6.75;;;0.68;;
55760;SDS011;41679;51.440;-2.012;2022-07-15T10:40:55;5.18;;;0.50;;
55760;SDS011;41679;51.440;-2.012;2022-07-15T10:48:51;4.57;;;0.50;;
55760;SDS011;41679;51.440;-2.012;2022-07-15T10:54:04;4.28;;;0.63;;
55760;SDS011;41679;51.440;-2.012;2022-07-15T11:01:47;7.47;;;0.90;;
55760;SDS011;41679;51.440;-2.012;2022-07-15T11:04:21;3.55;;;0.60;;
55760;SDS011;41679;51.440;-2.012;2022-07-15T11:14:56;7.85;;;1.42;;
55760;SDS011;41679;51.440;-2.012;2022-07-15T11:20:00;7.40;;;0.68;;
55760;SDS011;41679;51.440;-2.012;2022-07-15T11:22:30;7.50;;;0.80;;
55760;SDS011;41679;51.440;-2.012;2022-07-15T11:24:56;5.78;;;0.80;;
55760;SDS011;41679;51.440;-2.012;2022-07-15T11:27:23;9.55;;;0.82;;
55760;SDS011;41679;51.440;-2.012;2022-07-15T11:29:53;11.32;;;1.00;;
55760;SDS011;41679;51.440;-2.012;2022-07-15T11:32:24;12.20;;;0.85;;
55760;SDS011;41679;51.440;-2.012;2022-07-15T11:34:52;9.07;;;0.75;;
55760;SDS011;41679;51.440;-2.012;2022-07-15T11:37:26;8.95;;;0.70;;
55760;SDS011;41679;51.440;-2.012;2022-07-15T11:40:13;6.55;;;0.60;;
55760;SDS011;41679;51.440;-2.012;2022-07-15T11:43:03;12.70;;;1.02;;
55760;SDS011;41679;51.440;-2.012;2022-07-15T11:45:48;10.90;;;1.20;;
55760;SDS011;41679;51.440;-2.012;2022-07-15T11:48:14;13.90;;;1.15;;
55760;SDS011;41679;51.440;-2.012;2022-07-15T11:50:50;9.13;;;0.85;;
55760;SDS011;41679;51.440;-2.012;2022-07-15T11:53:18;5.30;;;0.60;;
55760;SDS011;41679;51.440;-2.012;2022-07-15T11:58:31;11.77;;;1.17;;
55760;SDS011;41679;51.440;-2.012;2022-07-15T12:00:59;11.55;;;1.10;;
55760;SDS011;41679;51.440;-2.012;2022-07-15T12:03:32;8.77;;;0.85;;
55760;SDS011;41679;51.440;-2.012;2022-07-15T12:08:54;8.27;;;0.73;;
55760;SDS011;41679;51.440;-2.012;2022-07-15T12:11:26;8.20;;;0.95;;
55760;SDS011;41679;51.440;-2.012;2022-07-15T12:16:43;10.95;;;1.00;;
55760;SDS011;41679;51.440;-2.012;2022-07-15T12:19:14;11.68;;;1.25;;
55760;SDS011;41679;51.440;-2.012;2022-07-15T12:21:40;6.88;;;0.63;;
55760;SDS011;41679;51.440;-2.012;2022-07-15T12:24:11;6.07;;;0.73;;
55760;SDS011;41679;51.440;-2.012;2022-07-15T12:26:42;11.20;;;1.00;;
55760;SDS011;41679;51.440;-2.012;2022-07-15T12:29:15;10.10;;;0.93;;
55760;SDS011;41679;51.440;-2.012;2022-07-15T12:31:50;8.05;;;0.80;;
55760;SDS011;41679;51.440;-2.012;2022-07-15T12:37:12;7.05;;;0.90;;
55760;SDS011;41679;51.440;-2.012;2022-07-15T12:42:19;9.38;;;1.02;;
55760;SDS011;41679;51.440;-2.012;2022-07-15T12:44:45;8.88;;;0.95;;
55760;SDS011;41679;51.440;-2.012;2022-07-15T12:47:10;10.27;;;1.05;;
55760;SDS011;41679;51.440;-2.012;2022-07-15T12:54:50;12.43;;;1.27;;
55760;SDS011;41679;51.440;-2.012;2022-07-15T12:57:19;9.48;;;1.30;;
55760;SDS011;41679;51.440;-2.012;2022-07-15T12:59:53;10.15;;;1.25;;
55760;SDS011;41679;51.440;-2.012;2022-07-15T13:02:20;11.10;;;1.13;;
55760;SDS011;41679;51.440;-2.012;2022-07-15T13:04:47;9.00;;;1.15;;
55760;SDS011;41679;51.440;-2.012;2022-07-15T13:07:19;7.65;;;1.08;;
55760;SDS011;41679;51.440;-2.012;2022-07-15T13:09:50;6.30;;;0.73;;
55760;SDS011;41679;51.440;-2.012;2022-07-15T13:12:16;8.00;;;0.90;;
55760;SDS011;41679;51.440;-2.012;2022-07-15T13:14:41;8.70;;;0.93;;
55760;SDS011;41679;51.440;-2.012;2022-07-15T13:17:08;9.07;;;1.00;;
55760;SDS011;41679;51.440;-2.012;2022-07-15T13:19:34;8.05;;;1.00;;
55760;SDS011;41679;51.440;-2.012;2022-07-15T13:22:00;10.98;;;1.25;;
55760;SDS011;41679;51.440;-2.012;2022-07-15T13:24:25;13.27;;;1.17;;
55760;SDS011;41679;51.440;-2.012;2022-07-15T13:26:51;10.18;;;1.23;;
55760;SDS011;41679;51.440;-2.012;2022-07-15T13:29:17;9.73;;;1.08;;
55760;SDS011;41679;51.440;-2.012;2022-07-15T13:31:42;10.73;;;1.13;;
55760;SDS011;41679;51.440;-2.012;2022-07-15T13:34:08;9.57;;;1.25;;
55760;SDS011;41679;51.440;-2.012;2022-07-15T13:36:34;11.57;;;1.60;;
55760;SDS011;41679;51.440;-2.012;2022-07-15T13:39:02;16.10;;;1.38;;
55760;SDS011;41679;51.440;-2.012;2022-07-15T13:41:31;11.45;;;1.40;;
55760;SDS011;41679;51.440;-2.012;2022-07-15T13:43:56;8.70;;;0.90;;
55760;SDS011;41679;51.440;-2.012;2022-07-15T13:46:22;14.55;;;1.60;;
55760;SDS011;41679;51.440;-2.012;2022-07-15T13:48:47;10.63;;;1.40;;
55760;SDS011;41679;51.440;-2.012;2022-07-15T13:51:13;13.43;;;1.58;;
55760;SDS011;41679;51.440;-2.012;2022-07-15T13:53:47;11.45;;;1.55;;
55760;SDS011;41679;51.440;-2.012;2022-07-15T13:56:14;10.60;;;1.52;;
55760;SDS011;41679;51.440;-2.012;2022-07-15T13:58:43;10.02;;;1.20;;
55760;SDS011;41679;51.440;-2.012;2022-07-15T14:01:10;10.93;;;1.30;;
55760;SDS011;41679;51.440;-2.012;2022-07-15T14:03:38;11.07;;;1.38;;
55760;SDS011;41679;51.440;-2.012;2022-07-15T14:06:04;10.32;;;1.23;;
55760;SDS011;41679;51.440;-2.012;2022-07-15T14:08:30;13.07;;;1.65;;
55760;SDS011;41679;51.440;-2.012;2022-07-15T14:10:55;11.68;;;1.40;;
55760;SDS011;41679;51.440;-2.012;2022-07-15T14:13:21;13.20;;;1.73;;
55760;SDS011;41679;51.440;-2.012;2022-07-15T14:15:47;9.30;;;1.48;;
55760;SDS011;41679;51.440;-2.012;2022-07-15T14:18:13;12.63;;;1.63;;
55760;SDS011;41679;51.440;-2.012;2022-07-15T14:20:40;11.82;;;1.83;;
55760;SDS011;41679;51.440;-2.012;2022-07-15T14:23:06;9.30;;;1.50;;
55760;SDS011;41679;51.440;-2.012;2022-07-15T14:25:33;11.80;;;1.95;;
55760;SDS011;41679;51.440;-2.012;2022-07-15T14:27:59;11.93;;;1.60;;
55760;SDS011;41679;51.440;-2.012;2022-07-15T14:30:24;11.73;;;1.33;;
55760;SDS011;41679;51.440;-2.012;2022-07-15T14:32:50;13.18;;;1.60;;
55760;SDS011;41679;51.440;-2.012;2022-07-15T14:35:16;10.02;;;1.60;;
55760;SDS011;41679;51.440;-2.012;2022-07-15T14:37:41;10.20;;;1.50;;
55760;SDS011;41679;51.440;-2.012;2022-07-15T14:40:07;11.93;;;1.50;;
55760;SDS011;41679;51.440;-2.012;2022-07-15T14:42:33;9.77;;;2.00;;
55760;SDS011;41679;51.440;-2.012;2022-07-15T14:44:59;11.05;;;1.70;;
55760;SDS011;41679;51.440;-2.012;2022-07-15T14:47:25;10.50;;;1.23;;
55760;SDS011;41679;51.440;-2.012;2022-07-15T14:49:50;10.18;;;1.63;;
55760;SDS011;41679;51.440;-2.012;2022-07-15T14:52:16;11.65;;;1.83;;
55760;SDS011;41679;51.440;-2.012;2022-07-15T14:54:42;10.20;;;1.58;;
55760;SDS011;41679;51.440;-2.012;2022-07-15T14:57:08;9.23;;;1.33;;
55760;SDS011;41679;51.440;-2.012;2022-07-15T14:59:33;8.68;;;1.38;;
55760;SDS011;41679;51.440;-2.012;2022-07-15T15:02:05;9.13;;;1.35;;
55760;SDS011;41679;51.440;-2.012;2022-07-15T15:04:32;11.85;;;1.52;;
55760;SDS011;41679;51.440;-2.012;2022-07-15T15:06:58;12.82;;;1.70;;
55760;SDS011;41679;51.440;-2.012;2022-07-15T15:09:24;16.45;;;3.45;;
55760;SDS011;41679;51.440;-2.012;2022-07-15T15:11:50;14.25;;;1.80;;
55760;SDS011;41679;51.440;-2.012;2022-07-15T15:14:16;10.27;;;1.50;;
55760;SDS011;41679;51.440;-2.012;2022-07-15T15:16:42;11.07;;;1.40;;
55760;SDS011;41679;51.440;-2.012;2022-07-15T15:19:17;9.95;;;1.42;;
55760;SDS011;41679;51.440;-2.012;2022-07-15T15:21:42;11.13;;;1.50;;
55760;SDS011;41679;51.440;-2.012;2022-07-15T15:24:08;12.07;;;1.85;;
55760;SDS011;41679;51.440;-2.012;2022-07-15T15:26:34;8.57;;;1.40;;
55760;SDS011;41679;51.440;-2.012;2022-07-15T15:29:00;12.20;;;2.47;;